createdAt,value
2023-10-10T00:00:25.185Z,99.99
2023-10-10T00:00:57.051Z,99.99
2023-10-10T00:01:29.098Z,99.99
2023-10-10T00:02:06.000Z,99.99
2023-10-10T00:02:37.796Z,99.99
2023-10-10T00:03:10.088Z,99.99
2023-10-10T00:03:43.592Z,99.99
2023-10-10T00:04:20.536Z,99.99
2023-10-10T00:04:52.363Z,99.99
2023-10-10T00:05:34.579Z,99.99
2023-10-10T00:06:10.242Z,99.99
2023-10-10T00:06:43.090Z,99.99
2023-10-10T00:07:15.872Z,99.99
2023-10-10T00:07:48.012Z,99.99
2023-10-10T00:08:21.821Z,99.99
2023-10-10T00:08:54.086Z,99.99
2023-10-10T00:09:27.461Z,99.99
2023-10-10T00:10:01.124Z,99.99
2023-10-10T00:10:35.205Z,99.99
2023-10-10T00:11:11.083Z,99.99
2023-10-10T00:11:42.987Z,99.99
2023-10-10T00:12:20.014Z,99.99
2023-10-10T00:12:51.736Z,99.99
2023-10-10T00:13:24.712Z,99.99
2023-10-10T00:14:06.608Z,99.99
2023-10-10T00:14:38.417Z,99.99
2023-10-10T00:15:14.790Z,99.99
2023-10-10T00:15:57.222Z,99.99
2023-10-10T00:16:36.736Z,99.99
2023-10-10T00:17:10.100Z,99.99
2023-10-10T00:17:42.828Z,99.99
2023-10-10T00:18:14.970Z,99.99
2023-10-10T00:18:47.638Z,99.99
2023-10-10T00:19:20.696Z,99.99
2023-10-10T00:19:59.447Z,99.99
2023-10-10T00:20:42.338Z,99.99
2023-10-10T00:21:24.153Z,99.99
2023-10-10T00:21:56.748Z,99.99
2023-10-10T00:22:36.482Z,99.99
2023-10-10T00:23:12.127Z,99.99
2023-10-10T00:23:43.923Z,99.99
2023-10-10T00:24:16.154Z,99.99
2023-10-10T00:24:50.148Z,99.99
2023-10-10T00:25:24.855Z,99.99
2023-10-10T00:25:56.885Z,99.99
2023-10-10T00:26:28.596Z,99.99
2023-10-10T00:27:07.733Z,99.99
2023-10-10T00:27:45.018Z,99.99
2023-10-10T00:28:19.720Z,99.99
2023-10-10T00:28:58.948Z,99.99
2023-10-10T00:29:30.827Z,99.99
2023-10-10T00:30:04.028Z,99.99
2023-10-10T00:30:35.861Z,99.99
2023-10-10T00:31:11.386Z,99.99
2023-10-10T00:31:44.769Z,99.99
2023-10-10T00:32:24.192Z,99.99
2023-10-10T00:32:56.162Z,99.99
2023-10-10T00:33:27.809Z,99.99
2023-10-10T00:33:59.600Z,99.99
2023-10-10T00:34:35.188Z,99.99
2023-10-10T00:35:07.860Z,99.99
2023-10-10T00:35:39.970Z,99.99
2023-10-10T00:36:21.749Z,99.99
2023-10-10T00:36:53.757Z,99.99
2023-10-10T00:37:30.787Z,99.99
2023-10-10T00:38:08.714Z,99.99
2023-10-10T00:38:40.798Z,99.99
2023-10-10T00:39:12.551Z,99.99
2023-10-10T00:39:53.707Z,99.99
2023-10-10T00:40:32.062Z,99.99
2023-10-10T00:41:08.814Z,99.99
2023-10-10T00:41:46.275Z,99.99
2023-10-10T00:42:21.496Z,99.99
2023-10-10T00:42:53.378Z,99.99
2023-10-10T00:43:25.806Z,99.99
2023-10-10T00:43:57.586Z,99.99
2023-10-10T00:44:29.332Z,99.99
2023-10-10T00:45:05.546Z,99.99
2023-10-10T00:45:37.496Z,99.99
2023-10-10T00:46:12.679Z,99.99
2023-10-10T00:47:05.950Z,99.99
2023-10-10T00:47:42.362Z,99.99
2023-10-10T00:48:18.383Z,99.99
2023-10-10T00:48:50.270Z,99.99
2023-10-10T00:49:27.021Z,99.99
2023-10-10T00:50:00.386Z,99.99
2023-10-10T00:50:35.745Z,99.99
2023-10-10T00:51:11.944Z,99.99
2023-10-10T00:51:48.352Z,99.99
2023-10-10T00:52:20.956Z,99.99
2023-10-10T00:52:57.315Z,99.99
2023-10-10T00:53:29.181Z,99.99
2023-10-10T00:54:20.120Z,99.99
2023-10-10T00:54:54.027Z,99.99
2023-10-10T00:55:26.809Z,99.99
2023-10-10T00:55:58.932Z,99.99
2023-10-10T00:56:31.057Z,99.99
2023-10-10T00:57:05.040Z,99.99
2023-10-10T00:57:38.223Z,99.99
2023-10-10T00:58:10.469Z,99.99
2023-10-10T00:58:43.560Z,99.99
2023-10-10T00:59:17.903Z,99.99
2023-10-10T00:59:55.847Z,99.99
2023-10-10T01:00:32.279Z,99.99
2023-10-10T01:01:11.731Z,99.99
2023-10-10T01:01:44.646Z,99.99
2023-10-10T01:02:22.278Z,99.99
2023-10-10T01:02:57.761Z,99.99
2023-10-10T01:03:32.141Z,99.99
2023-10-10T01:04:07.266Z,99.99
2023-10-10T01:04:55.170Z,99.99
2023-10-10T01:05:40.798Z,99.99
2023-10-10T01:06:25.792Z,99.99
2023-10-10T01:06:57.769Z,99.99
2023-10-10T01:07:30.173Z,99.99
2023-10-10T01:08:02.009Z,99.99
2023-10-10T01:08:52.152Z,99.99
2023-10-10T01:09:41.632Z,99.99
2023-10-10T01:10:14.003Z,99.99
2023-10-10T01:10:48.613Z,99.99
2023-10-10T01:11:21.119Z,99.99
2023-10-10T01:11:54.363Z,99.99
2023-10-10T01:12:33.661Z,99.99
2023-10-10T01:13:10.734Z,99.99
2023-10-10T01:13:42.445Z,99.99
2023-10-10T01:14:19.723Z,99.99
2023-10-10T01:14:59.037Z,99.99
2023-10-10T01:15:36.991Z,99.99
2023-10-10T01:16:10.027Z,99.99
2023-10-10T01:16:41.697Z,99.99
2023-10-10T01:17:13.749Z,99.99
2023-10-10T01:17:46.308Z,99.99
2023-10-10T01:18:18.952Z,99.99
2023-10-10T01:18:55.434Z,99.99
2023-10-10T01:19:30.817Z,99.99
2023-10-10T01:20:27.314Z,99.99
2023-10-10T01:21:03.987Z,99.99
2023-10-10T01:21:44.799Z,99.99
2023-10-10T01:22:38.466Z,99.99
2023-10-10T01:23:10.211Z,99.99
2023-10-10T01:23:42.035Z,99.99
2023-10-10T01:24:13.904Z,99.99
2023-10-10T01:24:45.594Z,99.99
2023-10-10T01:25:37.063Z,99.99
2023-10-10T01:26:10.614Z,99.99
2023-10-10T01:26:46.244Z,99.99
2023-10-10T01:27:22.371Z,99.99
2023-10-10T01:27:57.567Z,99.99
2023-10-10T01:28:35.090Z,99.99
2023-10-10T01:29:26.807Z,99.99
2023-10-10T01:30:17.146Z,99.99
2023-10-10T01:30:58.935Z,99.99
2023-10-10T01:31:31.745Z,99.99
2023-10-10T01:32:05.600Z,99.99
2023-10-10T01:32:39.545Z,99.99
2023-10-10T01:33:18.292Z,99.99
2023-10-10T01:33:50.896Z,99.99
2023-10-10T01:34:33.450Z,99.99
2023-10-10T01:35:16.610Z,99.99
2023-10-10T01:35:51.060Z,99.99
2023-10-10T01:36:23.908Z,99.99
2023-10-10T01:36:58.587Z,99.99
2023-10-10T01:37:30.665Z,99.99
2023-10-10T01:38:05.022Z,99.99
2023-10-10T01:38:45.540Z,99.99
2023-10-10T01:39:29.741Z,99.99
2023-10-10T01:40:17.870Z,99.99
2023-10-10T01:40:49.980Z,99.99
2023-10-10T01:41:25.623Z,99.99
2023-10-10T01:41:59.858Z,99.99
2023-10-10T01:42:38.672Z,99.99
2023-10-10T01:43:11.953Z,99.99
2023-10-10T01:43:55.035Z,99.99
2023-10-10T01:44:29.217Z,99.99
2023-10-10T01:45:09.317Z,99.99
2023-10-10T01:45:43.009Z,99.99
2023-10-10T01:46:21.236Z,99.99
2023-10-10T01:46:53.124Z,99.99
2023-10-10T01:47:28.253Z,99.99
2023-10-10T01:48:04.434Z,99.99
2023-10-10T01:48:45.094Z,99.99
2023-10-10T01:49:37.252Z,99.99
2023-10-10T01:50:11.978Z,99.99
2023-10-10T01:50:43.948Z,99.99
2023-10-10T01:51:19.096Z,99.99
2023-10-10T01:52:00.657Z,99.99
2023-10-10T01:52:32.600Z,99.99
2023-10-10T01:53:11.144Z,99.99
2023-10-10T01:53:44.060Z,99.99
2023-10-10T01:54:18.730Z,99.99
2023-10-10T01:54:54.583Z,99.99
2023-10-10T01:55:26.696Z,99.99
2023-10-10T01:56:07.969Z,99.99
2023-10-10T01:56:39.771Z,99.99
2023-10-10T01:57:22.614Z,99.99
2023-10-10T01:57:59.013Z,99.99
2023-10-10T01:58:31.010Z,99.99
2023-10-10T01:59:04.550Z,99.99
2023-10-10T01:59:37.101Z,99.99
2023-10-10T02:00:23.511Z,99.99
2023-10-10T02:00:55.860Z,99.99
2023-10-10T02:01:28.594Z,99.99
2023-10-10T02:02:00.481Z,99.99
2023-10-10T02:02:32.367Z,99.99
2023-10-10T02:03:05.132Z,99.99
2023-10-10T02:03:37.694Z,99.99
2023-10-10T02:04:09.589Z,99.99
2023-10-10T02:04:43.148Z,99.99
2023-10-10T02:05:15.162Z,99.99
2023-10-10T02:05:47.269Z,99.99
2023-10-10T02:06:29.403Z,99.99
2023-10-10T02:07:05.925Z,99.99
2023-10-10T02:07:40.711Z,99.99
2023-10-10T02:08:13.146Z,99.99
2023-10-10T02:08:45.860Z,99.99
2023-10-10T02:09:28.533Z,99.99
2023-10-10T02:10:05.263Z,99.99
2023-10-10T02:10:38.274Z,99.99
2023-10-10T02:11:09.980Z,99.99
2023-10-10T02:11:51.122Z,99.99
2023-10-10T02:12:23.624Z,99.99
2023-10-10T02:13:00.157Z,99.99
2023-10-10T02:13:34.686Z,99.99
2023-10-10T02:14:12.516Z,99.99
2023-10-10T02:14:44.609Z,99.99
2023-10-10T02:15:20.238Z,99.99
2023-10-10T02:15:53.077Z,99.99
2023-10-10T02:16:36.288Z,99.99
2023-10-10T02:17:21.124Z,99.99
2023-10-10T02:17:56.328Z,99.99
2023-10-10T02:18:52.292Z,99.99
2023-10-10T02:19:38.851Z,99.99
2023-10-10T02:20:28.903Z,99.99
2023-10-10T02:21:07.760Z,99.99
2023-10-10T02:21:59.688Z,99.99
2023-10-10T02:22:34.884Z,99.99
2023-10-10T02:23:09.514Z,99.99
2023-10-10T02:23:45.909Z,99.99
2023-10-10T02:24:39.818Z,99.99
2023-10-10T02:25:17.295Z,99.99
2023-10-10T02:25:49.020Z,99.99
2023-10-10T02:26:36.796Z,99.99
2023-10-10T02:27:10.169Z,99.99
2023-10-10T02:27:56.020Z,99.99
2023-10-10T02:28:44.837Z,99.99
2023-10-10T02:29:19.987Z,99.99
2023-10-10T02:29:54.641Z,99.99
2023-10-10T02:30:39.896Z,99.99
2023-10-10T02:31:14.209Z,99.99
2023-10-10T02:31:53.095Z,99.99
2023-10-10T02:32:24.854Z,99.99
2023-10-10T02:32:58.863Z,99.99
2023-10-10T02:33:35.341Z,99.99
2023-10-10T02:34:11.243Z,99.99
2023-10-10T02:34:48.406Z,99.99
2023-10-10T02:35:29.902Z,99.99
2023-10-10T02:36:01.716Z,99.99
2023-10-10T02:36:35.707Z,99.99
2023-10-10T02:37:16.447Z,99.99
2023-10-10T02:37:48.489Z,99.99
2023-10-10T02:38:23.870Z,99.99
2023-10-10T02:38:57.699Z,99.99
2023-10-10T02:39:30.969Z,99.99
2023-10-10T02:40:08.518Z,99.99
2023-10-10T02:40:44.426Z,99.99
2023-10-10T02:41:16.170Z,99.99
2023-10-10T02:41:52.105Z,99.99
2023-10-10T02:42:24.856Z,99.99
2023-10-10T02:43:31.853Z,99.99
2023-10-10T02:44:10.358Z,99.99
2023-10-10T02:44:48.213Z,99.99
2023-10-10T02:45:29.459Z,99.99
2023-10-10T02:46:01.840Z,99.99
2023-10-10T02:46:37.117Z,99.99
2023-10-10T02:47:10.247Z,99.99
2023-10-10T02:47:47.425Z,99.99
2023-10-10T02:48:23.018Z,99.99
2023-10-10T02:48:57.193Z,99.99
2023-10-10T02:49:28.817Z,99.99
2023-10-10T02:50:11.922Z,99.99
2023-10-10T02:50:43.816Z,99.99
2023-10-10T02:51:17.113Z,99.99
2023-10-10T02:51:50.135Z,99.99
2023-10-10T02:52:26.154Z,99.99
2023-10-10T02:53:01.958Z,99.99
2023-10-10T02:53:33.914Z,99.99
2023-10-10T02:54:21.417Z,99.99
2023-10-10T02:54:56.326Z,99.99
2023-10-10T02:55:34.840Z,99.99
2023-10-10T02:56:10.807Z,99.99
2023-10-10T02:56:44.825Z,99.99
2023-10-10T02:57:25.358Z,99.99
2023-10-10T02:58:00.526Z,99.99
2023-10-10T02:58:39.367Z,99.99
2023-10-10T02:59:11.198Z,99.99
2023-10-10T02:59:45.046Z,99.99
2023-10-10T03:00:17.523Z,99.99
2023-10-10T03:00:51.154Z,99.99
2023-10-10T03:01:51.694Z,99.99
2023-10-10T03:02:30.947Z,99.99
2023-10-10T03:03:04.524Z,99.99
2023-10-10T03:03:41.445Z,99.99
2023-10-10T03:04:18.293Z,99.99
2023-10-10T03:05:07.814Z,99.99
2023-10-10T03:05:40.457Z,99.99
2023-10-10T03:06:13.039Z,99.99
2023-10-10T03:06:45.751Z,99.99
2023-10-10T03:07:22.417Z,99.99
2023-10-10T03:07:54.175Z,99.99
2023-10-10T03:08:32.023Z,99.99
2023-10-10T03:09:22.345Z,99.99
2023-10-10T03:10:12.658Z,99.99
2023-10-10T03:10:48.168Z,99.99
2023-10-10T03:11:37.392Z,99.99
2023-10-10T03:12:18.802Z,99.99
2023-10-10T03:12:53.642Z,99.99
2023-10-10T03:13:44.137Z,99.99
2023-10-10T03:14:26.997Z,99.99
2023-10-10T03:15:19.024Z,99.99
2023-10-10T03:15:55.873Z,99.99
2023-10-10T03:16:27.635Z,99.99
2023-10-10T03:17:07.475Z,99.99
2023-10-10T03:18:05.862Z,99.99
2023-10-10T03:18:37.690Z,99.99
2023-10-10T03:19:12.117Z,99.99
2023-10-10T03:19:43.766Z,99.99
2023-10-10T03:20:31.694Z,99.99
2023-10-10T03:21:12.339Z,99.99
2023-10-10T03:21:47.001Z,99.99
2023-10-10T03:22:47.379Z,99.99
2023-10-10T03:23:19.144Z,99.99
2023-10-10T03:24:08.579Z,99.99
2023-10-10T03:25:08.411Z,99.99
2023-10-10T03:26:00.919Z,99.99
2023-10-10T03:26:52.640Z,99.99
2023-10-10T03:27:42.957Z,99.99
2023-10-10T03:28:21.723Z,99.99
2023-10-10T03:29:04.880Z,99.99
2023-10-10T03:29:59.374Z,99.99
2023-10-10T03:30:51.961Z,99.99
2023-10-10T03:31:32.621Z,99.99
2023-10-10T03:32:33.301Z,99.99
2023-10-10T03:33:12.316Z,99.99
2023-10-10T03:33:44.476Z,99.99
2023-10-10T03:34:19.260Z,99.99
2023-10-10T03:35:07.751Z,99.99
2023-10-10T03:36:15.059Z,99.99
2023-10-10T03:37:03.640Z,99.99
2023-10-10T03:37:42.542Z,99.99
2023-10-10T03:38:32.650Z,99.99
2023-10-10T03:39:27.473Z,99.99
2023-10-10T03:40:06.909Z,99.99
2023-10-10T03:41:07.638Z,99.99
2023-10-10T03:41:58.021Z,99.99
2023-10-10T03:42:48.548Z,99.99
2023-10-10T03:43:38.957Z,99.99
2023-10-10T03:44:29.509Z,99.99
2023-10-10T03:45:19.884Z,99.99
2023-10-10T03:46:10.300Z,99.99
2023-10-10T03:47:00.772Z,99.99
2023-10-10T03:47:51.032Z,99.99
2023-10-10T03:48:41.405Z,99.99
2023-10-10T03:49:31.737Z,99.99
2023-10-10T03:50:22.247Z,99.99
2023-10-10T03:51:12.378Z,99.99
2023-10-10T03:52:02.758Z,99.99
2023-10-10T03:52:53.106Z,99.99
2023-10-10T03:53:43.547Z,99.99
2023-10-10T03:54:34.115Z,99.99
2023-10-10T03:55:24.552Z,99.99
2023-10-10T03:56:14.808Z,99.99
2023-10-10T03:57:04.952Z,99.99
2023-10-10T03:57:55.258Z,99.99
2023-10-10T03:58:45.667Z,99.99
2023-10-10T03:59:36.262Z,99.99
2023-10-10T04:00:27.059Z,99.99
2023-10-10T04:01:17.551Z,99.99
2023-10-10T04:02:08.005Z,99.99
2023-10-10T04:02:58.577Z,99.99
2023-10-10T04:03:48.892Z,99.99
2023-10-10T04:04:39.289Z,99.99
2023-10-10T04:05:29.419Z,99.99
2023-10-10T04:06:26.300Z,99.99
2023-10-10T04:07:33.414Z,99.99
2023-10-10T04:08:23.984Z,99.99
2023-10-10T04:09:14.691Z,99.99
2023-10-10T04:10:04.908Z,99.99
2023-10-10T04:10:55.541Z,99.99
2023-10-10T04:11:45.893Z,99.99
2023-10-10T04:12:36.353Z,99.99
2023-10-10T04:13:26.688Z,99.99
2023-10-10T04:14:17.285Z,99.99
2023-10-10T04:15:07.650Z,99.99
2023-10-10T04:15:58.116Z,99.99
2023-10-10T04:16:48.135Z,99.99
2023-10-10T04:17:38.616Z,99.99
2023-10-10T04:18:28.876Z,99.99
2023-10-10T04:19:19.279Z,99.99
2023-10-10T04:20:09.747Z,99.99
2023-10-10T04:21:00.058Z,99.99
2023-10-10T04:21:50.144Z,99.99
2023-10-10T04:22:40.765Z,99.99
2023-10-10T04:23:31.255Z,99.99
2023-10-10T04:24:21.624Z,99.99
2023-10-10T04:25:12.010Z,99.99
2023-10-10T04:26:02.614Z,99.99
2023-10-10T04:26:52.845Z,99.99
2023-10-10T04:27:43.109Z,99.99
2023-10-10T04:28:33.559Z,99.99
2023-10-10T04:29:23.914Z,99.99
2023-10-10T04:30:14.475Z,99.99
2023-10-10T04:31:04.945Z,99.99
2023-10-10T04:31:55.425Z,99.99
2023-10-10T04:32:45.829Z,99.99
2023-10-10T04:33:36.111Z,99.99
2023-10-10T04:34:26.554Z,99.99
2023-10-10T04:35:17.077Z,99.99
2023-10-10T04:36:07.409Z,99.99
2023-10-10T04:36:57.855Z,99.99
2023-10-10T04:37:47.990Z,99.99
2023-10-10T04:38:38.479Z,99.99
2023-10-10T04:39:28.711Z,99.99
2023-10-10T04:40:19.077Z,99.99
2023-10-10T04:41:09.522Z,99.99
2023-10-10T04:41:59.911Z,99.99
2023-10-10T04:42:50.042Z,99.99
2023-10-10T04:43:40.200Z,99.99
2023-10-10T04:44:30.387Z,99.99
2023-10-10T04:45:20.415Z,99.99
2023-10-10T04:46:10.371Z,99.99
2023-10-10T04:47:00.944Z,99.99
2023-10-10T04:47:50.951Z,99.99
2023-10-10T04:48:41.481Z,99.99
2023-10-10T04:49:31.407Z,99.99
2023-10-10T04:50:21.705Z,99.99
2023-10-10T04:51:11.732Z,99.99
2023-10-10T04:52:01.607Z,99.99
2023-10-10T04:52:52.475Z,99.99
2023-10-10T04:53:43.036Z,99.99
2023-10-10T04:54:33.089Z,99.99
2023-10-10T04:55:23.526Z,99.99
2023-10-10T04:56:33.361Z,99.99
2023-10-10T04:57:23.705Z,99.99
2023-10-10T04:58:14.142Z,99.99
2023-10-10T04:59:04.450Z,99.99
2023-10-10T04:59:54.961Z,99.99
2023-10-10T05:00:45.453Z,99.99
2023-10-10T05:01:35.895Z,99.99
2023-10-10T05:02:25.985Z,99.99
2023-10-10T05:03:16.497Z,99.99
2023-10-10T05:04:06.798Z,99.99
2023-10-10T05:04:57.222Z,99.99
2023-10-10T05:05:47.170Z,99.99
2023-10-10T05:06:37.445Z,99.99
2023-10-10T05:07:27.848Z,99.99
2023-10-10T05:08:18.487Z,99.99
2023-10-10T05:09:08.740Z,99.99
2023-10-10T05:09:59.148Z,99.99
2023-10-10T05:10:49.621Z,99.99
2023-10-10T05:11:40.142Z,99.99
2023-10-10T05:12:30.504Z,99.99
2023-10-10T05:13:20.922Z,99.99
2023-10-10T05:14:18.921Z,99.99
2023-10-10T05:15:09.322Z,99.99
2023-10-10T05:15:59.839Z,99.99
2023-10-10T05:16:50.212Z,99.99
2023-10-10T05:17:40.744Z,99.99
2023-10-10T05:18:31.170Z,99.99
2023-10-10T05:19:21.436Z,99.99
2023-10-10T05:20:11.891Z,99.99
2023-10-10T05:21:02.304Z,99.99
2023-10-10T05:21:52.518Z,99.99
2023-10-10T05:22:42.944Z,99.99
2023-10-10T05:23:33.396Z,99.99
2023-10-10T05:24:10.404Z,99.99
2023-10-10T05:24:44.587Z,99.99
2023-10-10T05:25:23.996Z,99.99
2023-10-10T05:25:56.342Z,99.99
2023-10-10T05:26:31.957Z,99.99
2023-10-10T05:27:03.810Z,99.99
2023-10-10T05:27:42.669Z,99.99
2023-10-10T05:28:14.349Z,99.99
2023-10-10T05:28:47.442Z,99.99
2023-10-10T05:29:21.039Z,99.99
2023-10-10T05:29:52.897Z,99.99
2023-10-10T05:30:24.617Z,99.99
2023-10-10T05:30:56.944Z,99.99
2023-10-10T05:31:31.960Z,99.99
2023-10-10T05:32:09.793Z,99.99
2023-10-10T05:33:01.809Z,99.99
2023-10-10T05:33:37.614Z,99.99
2023-10-10T05:34:12.280Z,99.99
2023-10-10T05:34:45.049Z,99.99
2023-10-10T05:35:17.833Z,99.99
2023-10-10T05:36:01.034Z,99.99
2023-10-10T05:36:32.810Z,99.99
2023-10-10T05:37:04.806Z,99.99
2023-10-10T05:37:38.207Z,99.99
2023-10-10T05:38:10.037Z,99.99
2023-10-10T05:38:41.887Z,99.99
2023-10-10T05:39:19.172Z,99.99
2023-10-10T05:39:57.415Z,99.99
2023-10-10T05:40:29.646Z,99.99
2023-10-10T05:41:03.817Z,99.99
2023-10-10T05:41:41.918Z,99.99
2023-10-10T05:42:22.006Z,99.99
2023-10-10T05:42:54.162Z,99.99
2023-10-10T05:43:34.987Z,99.99
2023-10-10T05:44:06.872Z,99.99
2023-10-10T05:44:40.486Z,99.99
2023-10-10T05:45:15.020Z,99.99
2023-10-10T05:45:47.055Z,99.99
2023-10-10T05:46:18.952Z,99.99
2023-10-10T05:46:50.905Z,99.99
2023-10-10T05:47:25.664Z,99.99
2023-10-10T05:47:57.745Z,99.99
2023-10-10T05:48:29.822Z,99.99
2023-10-10T05:49:01.914Z,99.99
2023-10-10T05:49:34.177Z,99.99
2023-10-10T05:50:08.094Z,99.99
2023-10-10T05:50:42.820Z,99.99
2023-10-10T05:51:15.170Z,99.99
2023-10-10T05:51:46.870Z,99.99
2023-10-10T05:52:18.575Z,99.99
2023-10-10T05:52:50.527Z,99.99
2023-10-10T05:53:22.337Z,99.99
2023-10-10T05:53:53.973Z,99.99
2023-10-10T05:54:25.860Z,99.99
2023-10-10T05:54:57.464Z,99.99
2023-10-10T05:55:29.828Z,99.99
2023-10-10T05:56:14.289Z,99.99
2023-10-10T05:56:47.967Z,99.99
2023-10-10T05:57:19.736Z,99.99
2023-10-10T05:57:52.251Z,99.99
2023-10-10T05:58:23.878Z,99.99
2023-10-10T05:58:55.529Z,99.99
2023-10-10T05:59:29.787Z,99.99
2023-10-10T06:00:01.566Z,99.99
2023-10-10T06:00:46.019Z,99.99
2023-10-10T06:01:18.598Z,99.99
2023-10-10T06:01:50.668Z,99.99
2023-10-10T06:02:22.926Z,99.99
2023-10-10T06:02:55.103Z,99.99
2023-10-10T06:03:27.842Z,99.99
2023-10-10T06:03:59.816Z,99.99
2023-10-10T06:04:31.674Z,99.99
2023-10-10T06:05:05.980Z,99.99
2023-10-10T06:05:45.510Z,99.99
2023-10-10T06:06:19.768Z,99.99
2023-10-10T06:06:53.564Z,99.99
2023-10-10T06:07:25.197Z,99.99
2023-10-10T06:07:59.207Z,99.99
2023-10-10T06:08:32.745Z,99.99
2023-10-10T06:09:06.456Z,99.99
2023-10-10T06:09:41.388Z,99.99
2023-10-10T06:10:20.058Z,99.99
2023-10-10T06:10:51.765Z,99.99
2023-10-10T06:11:23.412Z,99.99
2023-10-10T06:11:55.912Z,99.99
2023-10-10T06:12:27.629Z,99.99
2023-10-10T06:13:04.985Z,99.99
2023-10-10T06:13:40.560Z,99.99
2023-10-10T06:14:13.137Z,99.99
2023-10-10T06:14:44.820Z,99.99
2023-10-10T06:15:20.313Z,99.99
2023-10-10T06:15:52.035Z,99.99
2023-10-10T06:16:25.287Z,99.99
2023-10-10T06:16:57.053Z,99.99
2023-10-10T06:17:29.886Z,99.99
2023-10-10T06:18:15.444Z,99.99
2023-10-10T06:18:48.986Z,99.99
2023-10-10T06:19:22.638Z,99.99
2023-10-10T06:19:57.008Z,99.99
2023-10-10T06:20:28.676Z,99.99
2023-10-10T06:21:10.049Z,99.99
2023-10-10T06:21:42.265Z,99.99
2023-10-10T06:22:16.597Z,99.99
2023-10-10T06:22:56.317Z,99.99
2023-10-10T06:23:28.016Z,99.99
2023-10-10T06:23:59.687Z,99.99
2023-10-10T06:24:35.202Z,99.99
2023-10-10T06:25:07.865Z,99.99
2023-10-10T06:25:39.660Z,99.99
2023-10-10T06:26:13.855Z,99.99
2023-10-10T06:26:47.446Z,99.99
2023-10-10T06:27:19.282Z,99.99
2023-10-10T06:27:55.551Z,99.99
2023-10-10T06:28:27.531Z,99.99
2023-10-10T06:29:00.353Z,99.99
2023-10-10T06:29:35.688Z,99.99
2023-10-10T06:30:17.726Z,99.99
2023-10-10T06:30:54.125Z,99.99
2023-10-10T06:31:35.757Z,99.99
2023-10-10T06:32:12.102Z,99.99
2023-10-10T06:32:44.408Z,99.99
2023-10-10T06:33:16.845Z,99.99
2023-10-10T06:33:52.684Z,99.99
2023-10-10T06:34:26.392Z,99.99
2023-10-10T06:35:16.541Z,99.99
2023-10-10T06:35:54.043Z,99.99
2023-10-10T06:36:25.686Z,99.99
2023-10-10T06:36:57.416Z,99.99
2023-10-10T06:37:29.320Z,99.99
2023-10-10T06:38:03.677Z,99.99
2023-10-10T06:38:35.794Z,99.99
2023-10-10T06:39:07.649Z,99.99
2023-10-10T06:40:08.548Z,99.99
2023-10-10T06:40:56.745Z,99.99
2023-10-10T06:41:29.435Z,99.95
2023-10-10T06:42:04.988Z,99.99
2023-10-10T06:42:37.667Z,99.99
2023-10-10T06:43:09.610Z,99.99
2023-10-10T06:43:41.313Z,99.99
2023-10-10T06:44:16.274Z,99.99
2023-10-10T06:44:49.855Z,99.99
2023-10-10T06:45:23.617Z,99.99
2023-10-10T06:45:58.394Z,99.99
2023-10-10T06:46:33.684Z,99.99
2023-10-10T06:47:10.642Z,99.99
2023-10-10T06:47:46.205Z,99.99
2023-10-10T06:48:17.981Z,99.99
2023-10-10T06:48:52.253Z,99.99
2023-10-10T06:49:24.580Z,99.99
2023-10-10T06:49:58.622Z,99.99
2023-10-10T06:50:40.127Z,99.99
2023-10-10T06:51:12.135Z,99.99
2023-10-10T06:51:44.034Z,99.99
2023-10-10T06:52:19.715Z,99.86
2023-10-10T06:52:56.232Z,99.99
2023-10-10T06:53:36.279Z,99.99
2023-10-10T06:54:10.219Z,99.99
2023-10-10T06:54:46.089Z,98.93
2023-10-10T06:55:23.657Z,98.02
2023-10-10T06:55:55.386Z,98.55
2023-10-10T06:56:45.467Z,98.94
2023-10-10T06:57:20.456Z,97.92
2023-10-10T06:57:59.638Z,98.29
2023-10-10T06:58:33.802Z,99.93
2023-10-10T06:59:05.613Z,98.21
2023-10-10T06:59:37.306Z,98.34
2023-10-10T07:00:29.224Z,97.92
2023-10-10T07:01:06.127Z,97.28
2023-10-10T07:01:41.209Z,97.95
2023-10-10T07:02:22.272Z,98.25
2023-10-10T07:02:54.696Z,97.69
2023-10-10T07:03:41.123Z,97.93
2023-10-10T07:04:14.710Z,98.09
2023-10-10T07:04:53.723Z,99.20
2023-10-10T07:05:29.482Z,99.19
2023-10-10T07:06:04.980Z,98.79
2023-10-10T07:06:37.012Z,98.26
2023-10-10T07:07:10.287Z,99.49
2023-10-10T07:07:42.087Z,97.94
2023-10-10T07:08:14.752Z,98.41
2023-10-10T07:08:50.829Z,98.61
2023-10-10T07:09:28.792Z,99.59
2023-10-10T07:10:00.460Z,99.85
2023-10-10T07:10:35.561Z,99.92
2023-10-10T07:11:11.144Z,97.62
2023-10-10T07:11:43.140Z,96.72
2023-10-10T07:12:18.115Z,97.14
2023-10-10T07:12:49.789Z,98.10
2023-10-10T07:13:22.304Z,99.48
2023-10-10T07:14:00.469Z,99.24
2023-10-10T07:14:41.831Z,97.90
2023-10-10T07:15:15.770Z,98.17
2023-10-10T07:15:53.590Z,98.92
2023-10-10T07:16:25.825Z,97.47
2023-10-10T07:16:58.519Z,97.08
2023-10-10T07:17:30.413Z,97.85
2023-10-10T07:18:15.729Z,98.76
2023-10-10T07:18:55.126Z,97.90
2023-10-10T07:19:32.756Z,96.58
2023-10-10T07:20:04.715Z,98.03
2023-10-10T07:20:55.892Z,99.00
2023-10-10T07:21:32.225Z,97.92
2023-10-10T07:22:05.028Z,96.00
2023-10-10T07:22:36.797Z,95.85
2023-10-10T07:23:08.672Z,96.43
2023-10-10T07:24:01.183Z,97.27
2023-10-10T07:24:42.276Z,97.14
2023-10-10T07:25:33.020Z,96.94
2023-10-10T07:26:24.689Z,96.17
2023-10-10T07:27:01.273Z,96.26
2023-10-10T07:27:33.049Z,96.34
2023-10-10T07:28:06.358Z,96.32
2023-10-10T07:28:49.454Z,96.27
2023-10-10T07:29:27.578Z,96.73
2023-10-10T07:29:59.424Z,96.98
2023-10-10T07:30:37.007Z,97.58
2023-10-10T07:31:13.213Z,97.89
2023-10-10T07:31:44.907Z,98.07
2023-10-10T07:32:19.990Z,97.08
2023-10-10T07:32:52.330Z,97.18
2023-10-10T07:33:24.774Z,97.19
2023-10-10T07:34:05.479Z,96.78
2023-10-10T07:34:40.244Z,96.62
2023-10-10T07:35:16.480Z,96.93
2023-10-10T07:35:54.819Z,96.38
2023-10-10T07:36:28.052Z,96.92
2023-10-10T07:37:08.947Z,97.31
2023-10-10T07:37:42.963Z,97.72
2023-10-10T07:38:16.968Z,98.81
2023-10-10T07:38:48.825Z,98.51
2023-10-10T07:39:37.603Z,99.14
2023-10-10T07:40:18.720Z,96.63
2023-10-10T07:40:53.085Z,97.98
2023-10-10T07:41:29.343Z,98.03
2023-10-10T07:42:01.357Z,97.14
2023-10-10T07:42:36.099Z,97.42
2023-10-10T07:43:08.927Z,97.09
2023-10-10T07:43:40.944Z,97.27
2023-10-10T07:44:14.035Z,97.55
2023-10-10T07:44:45.815Z,97.45
2023-10-10T07:45:27.768Z,96.84
2023-10-10T07:46:00.350Z,96.98
2023-10-10T07:46:37.333Z,97.28
2023-10-10T07:47:11.785Z,98.03
2023-10-10T07:47:59.314Z,96.40
2023-10-10T07:48:40.470Z,96.82
2023-10-10T07:49:18.092Z,96.50
2023-10-10T07:49:52.708Z,96.40
2023-10-10T07:50:50.525Z,97.05
2023-10-10T07:51:35.508Z,96.31
2023-10-10T07:52:07.551Z,95.93
2023-10-10T07:52:40.747Z,95.76
2023-10-10T07:53:14.331Z,96.12
2023-10-10T07:53:46.294Z,97.02
2023-10-10T07:54:30.191Z,97.58
2023-10-10T07:55:05.548Z,96.29
2023-10-10T07:55:59.879Z,96.20
2023-10-10T07:56:32.561Z,95.77
2023-10-10T07:57:08.888Z,95.58
2023-10-10T07:58:09.862Z,95.11
2023-10-10T07:58:52.033Z,96.00
2023-10-10T07:59:25.275Z,97.02
2023-10-10T07:59:58.952Z,94.50
2023-10-10T08:00:41.497Z,95.24
2023-10-10T08:01:18.731Z,96.17
2023-10-10T08:01:55.195Z,94.95
2023-10-10T08:02:33.045Z,94.54
2023-10-10T08:03:06.947Z,95.34
2023-10-10T08:03:45.715Z,94.37
2023-10-10T08:04:18.558Z,94.93
2023-10-10T08:04:51.587Z,96.29
2023-10-10T08:05:23.286Z,95.24
2023-10-10T08:05:54.953Z,93.61
2023-10-10T08:06:27.154Z,93.41
2023-10-10T08:06:58.796Z,92.98
2023-10-10T08:07:30.660Z,94.05
2023-10-10T08:08:06.871Z,95.01
2023-10-10T08:08:40.628Z,94.35
2023-10-10T08:09:19.816Z,93.99
2023-10-10T08:10:11.858Z,92.43
2023-10-10T08:10:45.530Z,93.54
2023-10-10T08:11:28.919Z,93.96
2023-10-10T08:12:02.322Z,91.98
2023-10-10T08:12:33.924Z,91.96
2023-10-10T08:13:11.556Z,92.15
2023-10-10T08:13:48.180Z,92.89
2023-10-10T08:14:20.613Z,93.33
2023-10-10T08:15:00.276Z,92.87
2023-10-10T08:15:31.995Z,92.52
2023-10-10T08:16:03.876Z,92.54
2023-10-10T08:16:36.410Z,92.68
2023-10-10T08:17:20.070Z,93.00
2023-10-10T08:17:54.305Z,92.84
2023-10-10T08:18:44.945Z,91.11
2023-10-10T08:19:16.910Z,91.34
2023-10-10T08:19:57.304Z,91.42
2023-10-10T08:20:59.392Z,91.75
2023-10-10T08:21:36.587Z,92.24
2023-10-10T08:22:13.890Z,92.43